createdAt,value
2019-06-01T00:00:22.161Z,1018.87
2019-06-01T00:01:22.158Z,1018.88
2019-06-01T00:02:22.155Z,1018.85
2019-06-01T00:03:22.159Z,1018.92
2019-06-01T00:04:22.140Z,1018.88
2019-06-01T00:05:22.141Z,1018.86
2019-06-01T00:06:22.131Z,1018.83
2019-06-01T00:07:22.131Z,1018.82
2019-06-01T00:08:22.119Z,1018.82
2019-06-01T00:09:22.115Z,1018.85
2019-06-01T00:10:22.109Z,1018.83
2019-06-01T00:11:22.102Z,1018.81
2019-06-01T00:12:22.109Z,1018.83
2019-06-01T00:13:22.091Z,1018.83
2019-06-01T00:14:22.092Z,1018.83
2019-06-01T00:15:22.088Z,1018.82
2019-06-01T00:16:22.103Z,1018.83
2019-06-01T00:17:22.072Z,1018.84
2019-06-01T00:18:22.078Z,1018.84
2019-06-01T00:19:22.059Z,1018.77
2019-06-01T00:20:22.055Z,1018.81
2019-06-01T00:21:22.054Z,1018.81
2019-06-01T00:22:22.045Z,1018.82
2019-06-01T00:23:22.043Z,1018.80
2019-06-01T00:24:22.038Z,1018.84
2019-06-01T00:25:22.033Z,1018.80
2019-06-01T00:26:22.026Z,1018.77
2019-06-01T00:27:22.019Z,1018.80
2019-06-01T00:28:22.013Z,1018.79
2019-06-01T00:29:22.009Z,1018.85
2019-06-01T00:30:27.142Z,1018.84
2019-06-01T00:31:22.004Z,1018.82
2019-06-01T00:32:21.992Z,1018.82
2019-06-01T00:33:21.990Z,1018.79
2019-06-01T00:34:21.984Z,1018.81
2019-06-01T00:35:21.975Z,1018.80
2019-06-01T00:36:21.973Z,1018.81
2019-06-01T00:37:21.966Z,1018.80
2019-06-01T00:38:21.964Z,1018.80
2019-06-01T00:39:21.953Z,1018.75
2019-06-01T00:40:21.955Z,1018.76
2019-06-01T00:41:21.945Z,1018.76
2019-06-01T00:42:21.957Z,1018.77
2019-06-01T00:43:21.934Z,1018.78
2019-06-01T00:44:21.926Z,1018.75
2019-06-01T00:45:21.928Z,1018.76
2019-06-01T00:46:21.915Z,1018.75
2019-06-01T00:47:21.918Z,1018.75
2019-06-01T00:48:21.907Z,1018.73
2019-06-01T00:49:21.908Z,1018.75
2019-06-01T00:50:21.895Z,1018.75
2019-06-01T00:51:21.893Z,1018.72
2019-06-01T00:52:21.895Z,1018.74
2019-06-01T00:53:21.882Z,1018.72
2019-06-01T00:54:21.876Z,1018.71
2019-06-01T00:55:21.883Z,1018.71
2019-06-01T00:56:21.865Z,1018.70
2019-06-01T00:57:22.337Z,1018.70
2019-06-01T00:58:21.856Z,1018.73
2019-06-01T00:59:21.848Z,1018.72
2019-06-01T01:00:21.847Z,1018.76
2019-06-01T01:01:21.836Z,1018.74
2019-06-01T01:02:21.830Z,1018.74
2019-06-01T01:03:21.826Z,1018.75
2019-06-01T01:04:21.824Z,1018.76
2019-06-01T01:05:21.830Z,1018.74
2019-06-01T01:06:21.810Z,1018.72
2019-06-01T01:07:21.807Z,1018.72
2019-06-01T01:08:21.803Z,1018.71
2019-06-01T01:09:21.795Z,1018.78
2019-06-01T01:10:21.789Z,1018.72
2019-06-01T01:11:21.788Z,1018.76
2019-06-01T01:12:21.784Z,1018.71
2019-06-01T01:13:21.776Z,1018.74
2019-06-01T01:14:21.776Z,1018.71
2019-06-01T01:15:21.767Z,1018.70
2019-06-01T01:16:21.760Z,1018.76
2019-06-01T01:17:21.763Z,1018.76
2019-06-01T01:18:21.744Z,1018.78
2019-06-01T01:19:21.772Z,1018.76
2019-06-01T01:20:21.767Z,1018.79
2019-06-01T01:21:21.731Z,1018.78
2019-06-01T01:22:21.758Z,1018.78
2019-06-01T01:23:21.718Z,1018.77
2019-06-01T01:24:21.712Z,1018.75
2019-06-01T01:25:21.719Z,1018.72
2019-06-01T01:26:21.703Z,1018.77
2019-06-01T01:27:21.700Z,1018.73
2019-06-01T01:28:23.918Z,1018.76
2019-06-01T01:29:21.691Z,1018.77
2019-06-01T01:30:21.698Z,1018.77
2019-06-01T01:31:21.676Z,1018.70
2019-06-01T01:32:21.669Z,1018.73
2019-06-01T01:33:21.665Z,1018.74
2019-06-01T01:34:21.656Z,1018.69
2019-06-01T01:35:21.656Z,1018.65
2019-06-01T01:36:21.647Z,1018.70
2019-06-01T01:37:21.641Z,1018.66
2019-06-01T01:38:21.637Z,1018.63
2019-06-01T01:39:21.629Z,1018.67
2019-06-01T01:40:21.636Z,1018.68
2019-06-01T01:41:21.619Z,1018.67
2019-06-01T01:42:21.612Z,1018.62
2019-06-01T01:43:21.610Z,1018.63
2019-06-01T01:44:21.605Z,1018.64
2019-06-01T01:45:21.598Z,1018.61
2019-06-01T01:46:21.591Z,1018.63
2019-06-01T01:47:21.639Z,1018.62
2019-06-01T01:48:21.586Z,1018.63
2019-06-01T01:49:21.577Z,1018.63
2019-06-01T01:50:21.580Z,1018.61
2019-06-01T01:51:21.565Z,1018.62
2019-06-01T01:52:21.558Z,1018.60
2019-06-01T01:53:21.564Z,1018.63
2019-06-01T01:54:21.548Z,1018.60
2019-06-01T01:55:21.542Z,1018.61
2019-06-01T01:56:21.548Z,1018.58
2019-06-01T01:57:21.530Z,1018.60
2019-06-01T01:58:21.526Z,1018.60
2019-06-01T01:59:21.543Z,1018.59
2019-06-01T02:00:21.517Z,1018.60
2019-06-01T02:01:23.194Z,1018.64
2019-06-01T02:02:21.503Z,1018.60
2019-06-01T02:03:21.501Z,1018.60
2019-06-01T02:04:21.505Z,1018.56
2019-06-01T02:05:21.492Z,1018.56
2019-06-01T02:06:21.486Z,1018.58
2019-06-01T02:07:21.479Z,1018.54
2019-06-01T02:08:21.470Z,1018.53
2019-06-01T02:09:21.472Z,1018.50
2019-06-01T02:10:21.459Z,1018.52
2019-06-01T02:11:21.460Z,1018.49
2019-06-01T02:12:21.455Z,1018.50
2019-06-01T02:13:21.460Z,1018.47
2019-06-01T02:14:21.449Z,1018.47
2019-06-01T02:15:21.429Z,1018.47
2019-06-01T02:16:21.434Z,1018.48
2019-06-01T02:17:21.424Z,1018.50
2019-06-01T02:18:21.418Z,1018.47
2019-06-01T02:19:21.408Z,1018.47
2019-06-01T02:20:21.403Z,1018.47
2019-06-01T02:21:21.398Z,1018.45
2019-06-01T02:22:21.400Z,1018.40
2019-06-01T02:23:21.394Z,1018.45
2019-06-01T02:24:21.382Z,1018.41
2019-06-01T02:25:21.376Z,1018.41
2019-06-01T02:26:21.369Z,1018.46
2019-06-01T02:27:21.366Z,1018.42
2019-06-01T02:28:21.362Z,1018.44
2019-06-01T02:29:21.355Z,1018.45
2019-06-01T02:30:21.356Z,1018.46
2019-06-01T02:31:39.338Z,1018.45
2019-06-01T02:32:21.341Z,1018.45
2019-06-01T02:33:21.332Z,1018.35
2019-06-01T02:34:21.327Z,1018.38
2019-06-01T02:35:21.319Z,1018.39
2019-06-01T02:36:21.314Z,1018.38
2019-06-01T02:37:21.310Z,1018.34
2019-06-01T02:38:21.306Z,1018.32
2019-06-01T02:39:21.300Z,1018.33
2019-06-01T02:40:21.292Z,1018.35
2019-06-01T02:41:21.285Z,1018.30
2019-06-01T02:42:21.281Z,1018.34
2019-06-01T02:43:21.285Z,1018.30
2019-06-01T02:44:21.271Z,1018.27
2019-06-01T02:45:21.271Z,1018.33
2019-06-01T02:46:21.270Z,1018.32
2019-06-01T02:47:21.254Z,1018.30
2019-06-01T02:48:21.261Z,1018.29
2019-06-01T02:49:21.242Z,1018.31
2019-06-01T02:50:21.237Z,1018.27
2019-06-01T02:51:21.235Z,1018.34
2019-06-01T02:52:21.229Z,1018.27
2019-06-01T02:53:21.219Z,1018.30
2019-06-01T02:54:21.216Z,1018.29
2019-06-01T02:55:21.208Z,1018.32
2019-06-01T02:56:21.202Z,1018.31
2019-06-01T02:57:21.195Z,1018.31
2019-06-01T02:58:21.190Z,1018.31
2019-06-01T02:59:21.195Z,1018.31
2019-06-01T03:00:21.184Z,1018.33
2019-06-01T03:01:21.216Z,1018.34
2019-06-01T03:02:21.169Z,1018.36
2019-06-01T03:03:21.209Z,1018.37
2019-06-01T03:04:21.174Z,1018.37
2019-06-01T03:05:21.158Z,1018.36
2019-06-01T03:06:21.144Z,1018.35
2019-06-01T03:07:21.141Z,1018.37
2019-06-01T03:08:21.132Z,1018.37
2019-06-01T03:09:21.128Z,1018.37
2019-06-01T03:10:21.122Z,1018.36
2019-06-01T03:11:21.125Z,1018.38
2019-06-01T03:12:21.112Z,1018.40
2019-06-01T03:13:21.111Z,1018.42
2019-06-01T03:14:21.099Z,1018.38
2019-06-01T03:15:21.098Z,1018.38
2019-06-01T03:16:21.089Z,1018.40
2019-06-01T03:17:21.088Z,1018.39
2019-06-01T03:18:21.076Z,1018.43
2019-06-01T03:19:21.071Z,1018.40
2019-06-01T03:20:21.071Z,1018.35
2019-06-01T03:21:21.070Z,1018.35
2019-06-01T03:22:21.057Z,1018.33
2019-06-01T03:23:21.068Z,1018.35
2019-06-01T03:24:21.043Z,1018.33
2019-06-01T03:25:21.040Z,1018.34
2019-06-01T03:26:21.034Z,1018.34
2019-06-01T03:27:21.075Z,1018.32
2019-06-01T03:28:21.020Z,1018.35
2019-06-01T03:29:21.071Z,1018.29
2019-06-01T03:30:21.013Z,1018.31
2019-06-01T03:31:21.004Z,1018.35
2019-06-01T03:32:35.351Z,1018.37
2019-06-01T03:33:20.997Z,1018.34
2019-06-01T03:34:20.989Z,1018.31
2019-06-01T03:35:20.978Z,1018.26
2019-06-01T03:36:20.980Z,1018.25
2019-06-01T03:37:20.970Z,1018.24
2019-06-01T03:38:20.967Z,1018.28
2019-06-01T03:39:20.956Z,1018.27
2019-06-01T03:40:23.964Z,1018.25
2019-06-01T03:41:20.954Z,1018.29
2019-06-01T03:42:20.936Z,1018.31
2019-06-01T03:43:20.934Z,1018.34
2019-06-01T03:44:20.933Z,1018.28
2019-06-01T03:45:20.948Z,1018.37
2019-06-01T03:46:20.920Z,1018.35
2019-06-01T03:47:20.914Z,1018.39
2019-06-01T03:48:20.908Z,1018.35
2019-06-01T03:49:20.900Z,1018.35
2019-06-01T03:50:20.894Z,1018.37
2019-06-01T03:51:20.895Z,1018.34
2019-06-01T03:52:20.883Z,1018.37
2019-06-01T03:53:20.885Z,1018.36
2019-06-01T03:54:20.870Z,1018.34
2019-06-01T03:55:20.867Z,1018.33
2019-06-01T03:56:20.861Z,1018.33
2019-06-01T03:57:20.855Z,1018.36
2019-06-01T03:58:20.871Z,1018.38
2019-06-01T03:59:20.843Z,1018.40
2019-06-01T04:00:20.835Z,1018.32
2019-06-01T04:01:20.837Z,1018.39
2019-06-01T04:02:32.445Z,1018.39
2019-06-01T04:03:20.819Z,1018.39
2019-06-01T04:04:20.816Z,1018.40
2019-06-01T04:05:20.808Z,1018.38
2019-06-01T04:06:20.802Z,1018.38
2019-06-01T04:07:20.798Z,1018.34
2019-06-01T04:08:20.821Z,1018.41
2019-06-01T04:09:20.813Z,1018.36
2019-06-01T04:10:20.807Z,1018.39
2019-06-01T04:11:20.799Z,1018.39
2019-06-01T04:12:20.769Z,1018.40
2019-06-01T04:13:20.764Z,1018.45
2019-06-01T04:14:20.758Z,1018.42
2019-06-01T04:15:20.755Z,1018.46
2019-06-01T04:16:20.748Z,1018.45
2019-06-01T04:17:20.743Z,1018.43
2019-06-01T04:18:20.743Z,1018.45
2019-06-01T04:19:20.730Z,1018.49
2019-06-01T04:20:20.725Z,1018.50
2019-06-01T04:21:20.718Z,1018.51
2019-06-01T04:22:20.711Z,1018.48
2019-06-01T04:23:20.703Z,1018.49
2019-06-01T04:24:20.703Z,1018.46
2019-06-01T04:25:20.696Z,1018.56
2019-06-01T04:26:20.688Z,1018.56
2019-06-01T04:27:20.683Z,1018.49
2019-06-01T04:28:20.678Z,1018.45
2019-06-01T04:29:20.671Z,1018.51
2019-06-01T04:30:20.668Z,1018.48
2019-06-01T04:31:20.668Z,1018.49
2019-06-01T04:32:20.660Z,1018.47
2019-06-01T04:33:20.649Z,1018.47
2019-06-01T04:34:20.643Z,1018.47
2019-06-01T04:35:20.640Z,1018.44
2019-06-01T04:36:20.633Z,1018.47
2019-06-01T04:37:20.630Z,1018.49
2019-06-01T04:38:20.626Z,1018.48
2019-06-01T04:39:20.617Z,1018.52
2019-06-01T04:40:20.612Z,1018.51
2019-06-01T04:41:20.606Z,1018.50
2019-06-01T04:42:20.610Z,1018.52
2019-06-01T04:43:20.604Z,1018.51
2019-06-01T04:44:20.593Z,1018.58
2019-06-01T04:45:20.594Z,1018.51
2019-06-01T04:46:20.574Z,1018.53
2019-06-01T04:47:20.569Z,1018.57
2019-06-01T04:48:20.566Z,1018.55
2019-06-01T04:49:20.559Z,1018.56
2019-06-01T04:50:20.551Z,1018.64
2019-06-01T04:51:20.549Z,1018.60
2019-06-01T04:52:20.551Z,1018.65
2019-06-01T04:53:20.537Z,1018.63
2019-06-01T04:54:20.533Z,1018.61
2019-06-01T04:55:20.576Z,1018.68
2019-06-01T04:56:20.521Z,1018.71
2019-06-01T04:57:20.514Z,1018.70
2019-06-01T04:58:20.513Z,1018.69
2019-06-01T04:59:20.512Z,1018.65
2019-06-01T05:00:27.381Z,1018.66
2019-06-01T05:01:20.505Z,1018.69
2019-06-01T05:02:20.485Z,1018.72
2019-06-01T05:03:20.488Z,1018.68
2019-06-01T05:04:20.474Z,1018.67
2019-06-01T05:05:20.474Z,1018.68
2019-06-01T05:06:20.467Z,1018.66
2019-06-01T05:07:20.465Z,1018.69
2019-06-01T05:08:20.451Z,1018.71
2019-06-01T05:09:20.447Z,1018.70
2019-06-01T05:10:20.445Z,1018.70
2019-06-01T05:11:20.447Z,1018.74
2019-06-01T05:12:20.439Z,1018.70
2019-06-01T05:13:20.431Z,1018.70
2019-06-01T05:14:20.431Z,1018.73
2019-06-01T05:15:20.417Z,1018.72
2019-06-01T05:16:20.412Z,1018.76
2019-06-01T05:17:20.403Z,1018.75
2019-06-01T05:18:20.408Z,1018.74
2019-06-01T05:19:20.400Z,1018.75
2019-06-01T05:20:20.389Z,1018.77
2019-06-01T05:21:20.386Z,1018.73
2019-06-01T05:22:20.379Z,1018.77
2019-06-01T05:23:20.372Z,1018.78
2019-06-01T05:24:20.366Z,1018.79
2019-06-01T05:25:20.362Z,1018.79
2019-06-01T05:26:20.358Z,1018.76
2019-06-01T05:27:20.355Z,1018.77
2019-06-01T05:28:20.340Z,1018.78
2019-06-01T05:29:20.339Z,1018.78
2019-06-01T05:30:20.346Z,1018.75
2019-06-01T05:31:24.900Z,1018.79
2019-06-01T05:32:20.319Z,1018.80
2019-06-01T05:33:35.288Z,1018.82
2019-06-01T05:34:20.308Z,1018.81
2019-06-01T05:35:20.307Z,1018.81
2019-06-01T05:36:20.302Z,1018.77
2019-06-01T05:37:20.292Z,1018.79
2019-06-01T05:38:20.292Z,1018.79
2019-06-01T05:39:20.287Z,1018.77
2019-06-01T05:40:20.278Z,1018.80
2019-06-01T05:41:20.281Z,1018.82
2019-06-01T05:42:20.281Z,1018.81
2019-06-01T05:43:21.411Z,1018.79
2019-06-01T05:44:20.260Z,1018.81
2019-06-01T05:45:22.598Z,1018.79
2019-06-01T05:46:20.246Z,1018.81
2019-06-01T05:47:20.254Z,1018.80
2019-06-01T05:48:24.793Z,1018.80
2019-06-01T05:49:20.228Z,1018.80
2019-06-01T05:50:20.228Z,1018.84
2019-06-01T05:51:20.229Z,1018.82
2019-06-01T05:52:20.212Z,1018.87
2019-06-01T05:53:20.216Z,1018.83
2019-06-01T05:54:20.205Z,1018.81
2019-06-01T05:55:20.195Z,1018.82
2019-06-01T05:56:20.192Z,1018.83
2019-06-01T05:57:20.186Z,1018.83
2019-06-01T05:58:21.640Z,1018.83
2019-06-01T05:59:20.180Z,1018.83
2019-06-01T06:00:21.266Z,1018.84
2019-06-01T06:01:20.167Z,1018.85
2019-06-01T06:02:20.169Z,1018.85
2019-06-01T06:03:23.481Z,1018.84
2019-06-01T06:04:20.154Z,1018.87
2019-06-01T06:05:20.168Z,1018.81
2019-06-01T06:06:20.136Z,1018.84
2019-06-01T06:07:20.132Z,1018.84
2019-06-01T06:08:20.189Z,1018.87
2019-06-01T06:09:20.119Z,1018.86
2019-06-01T06:10:20.149Z,1018.87
2019-06-01T06:11:21.162Z,1018.84
2019-06-01T06:12:21.513Z,1018.90
2019-06-01T06:13:21.385Z,1018.82
2019-06-01T06:14:20.991Z,1018.86
2019-06-01T06:15:20.094Z,1018.90
2019-06-01T06:16:20.853Z,1018.86
2019-06-01T06:17:21.698Z,1018.82
2019-06-01T06:18:20.081Z,1018.86
2019-06-01T06:19:22.177Z,1018.88
2019-06-01T06:20:20.208Z,1018.87
2019-06-01T06:21:20.328Z,1018.85
2019-06-01T06:22:20.369Z,1018.89
2019-06-01T06:23:20.537Z,1018.87
2019-06-01T06:24:20.593Z,1018.91
2019-06-01T06:25:20.037Z,1018.86
2019-06-01T06:26:20.503Z,1018.91
2019-06-01T06:27:20.698Z,1018.88
2019-06-01T06:28:20.804Z,1018.88
2019-06-01T06:29:20.951Z,1018.87
2019-06-01T06:30:21.009Z,1018.86
2019-06-01T06:31:21.127Z,1018.89
2019-06-01T06:32:21.262Z,1018.88
2019-06-01T06:33:19.993Z,1018.85
2019-06-01T06:34:19.991Z,1018.83
2019-06-01T06:35:19.987Z,1018.87
2019-06-01T06:36:19.980Z,1018.81
2019-06-01T06:37:19.977Z,1018.88
2019-06-01T06:38:19.968Z,1018.85
2019-06-01T06:39:20.118Z,1018.85
2019-06-01T06:40:20.180Z,1018.90
2019-06-01T06:41:20.362Z,1018.90
2019-06-01T06:42:20.328Z,1018.85
2019-06-01T06:43:28.336Z,1018.84
2019-06-01T06:44:20.611Z,1018.89
2019-06-01T06:45:20.785Z,1018.85
2019-06-01T06:46:20.736Z,1018.88
2019-06-01T06:47:20.938Z,1018.85
2019-06-01T06:48:21.169Z,1018.87
2019-06-01T06:49:21.277Z,1018.86
2019-06-01T06:50:19.905Z,1018.89
2019-06-01T06:51:19.908Z,1018.87
2019-06-01T06:52:19.938Z,1018.87
2019-06-01T06:53:29.847Z,1018.87
2019-06-01T06:54:19.932Z,1018.83
2019-06-01T06:55:19.932Z,1018.86
2019-06-01T06:56:19.987Z,1018.91
2019-06-01T06:57:20.179Z,1018.88
2019-06-01T06:58:21.057Z,1018.86
2019-06-01T06:59:20.397Z,1018.85
2019-06-01T07:00:20.611Z,1018.85
2019-06-01T07:01:20.816Z,1018.88
2019-06-01T07:02:20.868Z,1018.84
2019-06-01T07:03:21.016Z,1018.87
2019-06-01T07:04:21.041Z,1018.84
2019-06-01T07:05:19.899Z,1018.84
2019-06-01T07:06:19.844Z,1018.90
2019-06-01T07:07:19.820Z,1018.92
2019-06-01T07:08:19.819Z,1018.86
2019-06-01T07:09:20.012Z,1018.85
2019-06-01T07:10:20.074Z,1018.87
2019-06-01T07:11:19.823Z,1018.91
2019-06-01T07:12:19.803Z,1018.85
2019-06-01T07:13:19.807Z,1018.90
2019-06-01T07:14:19.817Z,1018.82
2019-06-01T07:17:49.211Z,1018.86
2019-06-01T07:18:49.200Z,1018.82
2019-06-01T07:19:49.188Z,1018.84
2019-06-01T07:20:49.200Z,1018.85
2019-06-01T07:21:49.175Z,1018.88
2019-06-01T07:22:49.167Z,1018.90
2019-06-01T07:23:49.177Z,1018.89
2019-06-01T07:24:49.162Z,1018.91
2019-06-01T07:25:49.153Z,1018.85
2019-06-01T07:26:49.146Z,1018.86
2019-06-01T07:27:49.145Z,1018.81
2019-06-01T07:28:49.153Z,1018.77
2019-06-01T07:29:49.137Z,1018.83
2019-06-01T07:30:50.744Z,1018.81
2019-06-01T07:31:49.125Z,1018.82
2019-06-01T07:32:49.126Z,1018.82
2019-06-01T07:33:49.109Z,1018.84
2019-06-01T07:34:49.111Z,1018.84
2019-06-01T07:35:49.102Z,1018.82
2019-06-01T07:36:49.180Z,1018.84
2019-06-01T07:37:49.090Z,1018.84
2019-06-01T07:38:49.087Z,1018.82
2019-06-01T07:39:49.084Z,1018.84
2019-06-01T07:40:49.083Z,1018.79
2019-06-01T07:41:49.081Z,1018.82
2019-06-01T07:42:49.067Z,1018.83
2019-06-01T07:43:49.072Z,1018.79
2019-06-01T07:44:49.086Z,1018.80
2019-06-01T07:45:49.053Z,1018.83
2019-06-01T07:46:49.047Z,1018.83
2019-06-01T07:47:49.057Z,1018.80
2019-06-01T07:48:49.037Z,1018.85
2019-06-01T07:49:49.059Z,1018.79
2019-06-01T07:50:49.024Z,1018.80
2019-06-01T07:51:49.045Z,1018.84
2019-06-01T07:52:49.013Z,1018.81
2019-06-01T07:53:49.151Z,1018.83
2019-06-01T07:54:49.042Z,1018.83
2019-06-01T07:55:49.007Z,1018.87
2019-06-01T07:56:48.994Z,1018.88
2019-06-01T07:57:48.989Z,1018.84
2019-06-01T07:58:48.997Z,1018.88
2019-06-01T07:59:48.989Z,1018.93
2019-06-01T08:00:48.976Z,1018.90
2019-06-01T08:01:48.971Z,1018.86
2019-06-01T08:02:48.970Z,1018.88
2019-06-01T08:03:48.971Z,1018.90
2019-06-01T08:04:54.147Z,1018.90
2019-06-01T08:05:48.953Z,1018.91
2019-06-01T08:06:49.267Z,1018.87
2019-06-01T08:07:48.945Z,1018.91
2019-06-01T08:08:48.948Z,1018.87
2019-06-01T08:09:48.986Z,1018.87
2019-06-01T08:10:48.929Z,1018.89
2019-06-01T08:11:48.932Z,1018.83
2019-06-01T08:12:48.917Z,1018.89
2019-06-01T08:13:48.913Z,1018.89
2019-06-01T08:14:48.908Z,1018.88
2019-06-01T08:15:48.900Z,1018.88
2019-06-01T08:16:48.900Z,1018.87
2019-06-01T08:17:48.890Z,1018.87
2019-06-01T08:18:52.956Z,1018.87
2019-06-01T08:19:51.888Z,1018.86
2019-06-01T08:20:48.882Z,1018.90
2019-06-01T08:21:48.874Z,1018.93
2019-06-01T08:22:48.867Z,1018.93
2019-06-01T08:23:48.868Z,1018.91
2019-06-01T08:24:48.859Z,1018.94
2019-06-01T08:25:48.856Z,1018.88
2019-06-01T08:26:48.853Z,1018.91
2019-06-01T08:27:48.845Z,1018.88
2019-06-01T08:28:48.840Z,1018.87
2019-06-01T08:29:48.835Z,1018.82
2019-06-01T08:30:48.837Z,1018.88
2019-06-01T08:31:48.825Z,1018.85
2019-06-01T08:32:48.821Z,1018.84
2019-06-01T08:33:48.819Z,1018.83
2019-06-01T08:34:48.810Z,1018.83
2019-06-01T08:35:48.805Z,1018.75
2019-06-01T08:36:48.808Z,1018.75
2019-06-01T08:37:48.799Z,1018.78
2019-06-01T08:38:48.808Z,1018.78
2019-06-01T08:39:48.793Z,1018.77
2019-06-01T08:40:48.781Z,1018.75
2019-06-01T08:41:48.845Z,1018.73
2019-06-01T08:42:48.774Z,1018.72
2019-06-01T08:43:48.779Z,1018.70
2019-06-01T08:44:48.758Z,1018.71
2019-06-01T08:45:48.762Z,1018.77
2019-06-01T08:46:48.776Z,1018.74
2019-06-01T08:47:48.786Z,1018.75
2019-06-01T08:48:48.747Z,1018.73
2019-06-01T08:49:48.740Z,1018.77
2019-06-01T08:50:48.736Z,1018.73
2019-06-01T08:51:48.733Z,1018.77
2019-06-01T08:52:48.730Z,1018.76
2019-06-01T08:53:48.721Z,1018.67
2019-06-01T08:54:48.714Z,1018.66
2019-06-01T08:55:48.713Z,1018.67
2019-06-01T08:56:48.712Z,1018.67
2019-06-01T08:57:48.710Z,1018.63
2019-06-01T08:58:48.711Z,1018.64
2019-06-01T08:59:48.701Z,1018.59
2019-06-01T09:00:48.685Z,1018.54
2019-06-01T09:01:48.697Z,1018.55
2019-06-01T09:02:48.758Z,1018.55
2019-06-01T09:03:48.671Z,1018.55
2019-06-01T09:04:48.669Z,1018.54
2019-06-01T09:05:48.666Z,1018.52
2019-06-01T09:06:48.685Z,1018.52
2019-06-01T09:07:48.656Z,1018.46
2019-06-01T09:08:48.665Z,1018.46
2019-06-01T09:09:48.644Z,1018.43
2019-06-01T09:10:48.640Z,1018.46
2019-06-01T09:11:48.638Z,1018.41
2019-06-01T09:12:48.635Z,1018.43
2019-06-01T09:13:52.167Z,1018.38
2019-06-01T09:14:48.622Z,1018.38
2019-06-01T09:15:48.627Z,1018.32
2019-06-01T09:16:48.627Z,1018.32
2019-06-01T09:17:48.609Z,1018.37
2019-06-01T09:18:48.614Z,1018.36
2019-06-01T09:19:48.600Z,1018.36
2019-06-01T09:20:48.594Z,1018.39
2019-06-01T09:21:48.595Z,1018.34
2019-06-01T09:22:48.590Z,1018.36
2019-06-01T09:23:48.581Z,1018.36
2019-06-01T09:24:52.994Z,1018.40
2019-06-01T09:25:48.576Z,1018.41
2019-06-01T09:26:48.568Z,1018.42
2019-06-01T09:27:48.565Z,1018.38
2019-06-01T09:28:48.559Z,1018.33
2019-06-01T09:29:48.557Z,1018.31
2019-06-01T09:30:48.549Z,1018.35
2019-06-01T09:31:48.594Z,1018.37
2019-06-01T09:32:48.562Z,1018.35
2019-06-01T09:33:48.552Z,1018.41
2019-06-01T09:34:48.541Z,1018.36
2019-06-01T09:35:55.887Z,1018.34
2019-06-01T09:36:48.519Z,1018.32
2019-06-01T09:37:48.573Z,1018.34
2019-06-01T09:38:48.517Z,1018.27
2019-06-01T09:39:48.513Z,1018.31
2019-06-01T09:40:48.606Z,1018.29
2019-06-01T09:41:48.499Z,1018.26
2019-06-01T09:42:48.495Z,1018.23
2019-06-01T09:43:48.493Z,1018.22
2019-06-01T09:44:48.492Z,1018.23
2019-06-01T09:45:52.745Z,1018.26
2019-06-01T09:46:48.478Z,1018.28
2019-06-01T09:47:48.476Z,1018.28
2019-06-01T09:48:48.474Z,1018.25
2019-06-01T09:49:48.470Z,1018.24
2019-06-01T09:50:48.461Z,1018.27
2019-06-01T09:51:48.465Z,1018.25
2019-06-01T09:52:48.456Z,1018.27
2019-06-01T09:53:48.454Z,1018.23
2019-06-01T09:54:48.495Z,1018.21
2019-06-01T09:55:48.439Z,1018.25
2019-06-01T09:56:48.437Z,1018.21
2019-06-01T09:57:48.433Z,1018.18
2019-06-01T09:58:48.426Z,1018.25
2019-06-01T09:59:48.421Z,1018.20
2019-06-01T10:00:48.419Z,1018.23
2019-06-01T10:01:48.458Z,1018.26
2019-06-01T10:02:48.412Z,1018.20
2019-06-01T10:03:48.406Z,1018.24
2019-06-01T10:04:48.409Z,1018.25
2019-06-01T10:06:01.569Z,1018.14
2019-06-01T10:06:48.394Z,1018.19
2019-06-01T10:07:48.390Z,1018.25
2019-06-01T10:08:48.383Z,1018.24
2019-06-01T10:09:48.387Z,1018.23
2019-06-01T10:10:48.377Z,1018.23
2019-06-01T10:11:48.375Z,1018.15
2019-06-01T10:12:48.378Z,1018.22
2019-06-01T10:13:48.378Z,1018.17
2019-06-01T10:14:48.367Z,1018.19
2019-06-01T10:15:48.356Z,1018.12
2019-06-01T10:16:48.353Z,1018.11
2019-06-01T10:17:48.349Z,1018.12
2019-06-01T10:18:48.344Z,1018.03
2019-06-01T10:19:48.342Z,1017.99
2019-06-01T10:20:48.347Z,1017.97
2019-06-01T10:21:48.330Z,1017.95
2019-06-01T10:22:48.335Z,1017.95
2019-06-01T10:23:49.886Z,1017.92
2019-06-01T10:24:48.323Z,1017.94
2019-06-01T10:25:48.319Z,1017.92
2019-06-01T10:26:48.321Z,1017.96
2019-06-01T10:27:48.314Z,1017.94
2019-06-01T10:28:48.303Z,1017.97
2019-06-01T10:29:48.310Z,1017.98
2019-06-01T10:30:48.305Z,1017.95
2019-06-01T10:31:48.289Z,1017.96
2019-06-01T10:32:48.290Z,1017.91
2019-06-01T10:33:51.410Z,1017.92
2019-06-01T10:34:48.280Z,1017.94
2019-06-01T10:35:48.282Z,1017.90
2019-06-01T10:36:48.269Z,1017.88
2019-06-01T10:37:48.300Z,1017.86
2019-06-01T10:38:48.262Z,1017.89
2019-06-01T10:39:48.265Z,1017.84
2019-06-01T10:40:48.253Z,1017.86
2019-06-01T10:41:48.250Z,1017.86
2019-06-01T10:42:48.247Z,1017.83
2019-06-01T10:43:48.240Z,1017.81
2019-06-01T10:44:48.239Z,1017.85
2019-06-01T10:45:48.235Z,1017.80
2019-06-01T10:46:48.231Z,1017.78
2019-06-01T10:47:48.247Z,1017.76
2019-06-01T10:48:48.222Z,1017.75
2019-06-01T10:49:48.263Z,1017.73
2019-06-01T10:50:48.215Z,1017.70
2019-06-01T10:51:48.216Z,1017.71
2019-06-01T10:52:48.210Z,1017.68
2019-06-01T10:53:48.222Z,1017.70
2019-06-01T10:54:48.203Z,1017.80
2019-06-01T10:55:48.211Z,1017.77
2019-06-01T10:56:48.205Z,1017.77
2019-06-01T10:57:48.183Z,1017.77
2019-06-01T10:58:59.327Z,1017.77
2019-06-01T10:59:48.179Z,1017.71
2019-06-01T11:00:51.116Z,1017.76
2019-06-01T11:01:48.204Z,1017.72
2019-06-01T11:02:48.172Z,1017.71
2019-06-01T11:03:48.162Z,1017.70
2019-06-01T11:04:48.157Z,1017.71
2019-06-01T11:05:48.168Z,1017.71
2019-06-01T11:06:48.925Z,1017.68
2019-06-01T11:07:48.151Z,1017.58
2019-06-01T11:08:48.152Z,1017.59
2019-06-01T11:09:48.139Z,1017.59
2019-06-01T11:10:48.137Z,1017.50
2019-06-01T11:11:48.134Z,1017.48
2019-06-01T11:12:48.129Z,1017.53
2019-06-01T11:13:48.122Z,1017.49
2019-06-01T11:14:48.123Z,1017.52
2019-06-01T11:15:48.141Z,1017.54
2019-06-01T11:16:55.660Z,1017.55
2019-06-01T11:17:48.108Z,1017.45
2019-06-01T11:18:48.256Z,1017.47
2019-06-01T11:19:48.100Z,1017.49
2019-06-01T11:20:48.096Z,1017.45
2019-06-01T11:21:48.109Z,1017.50
2019-06-01T11:22:48.087Z,1017.52
2019-06-01T11:23:48.104Z,1017.46
2019-06-01T11:24:48.089Z,1017.46
2019-06-01T11:25:48.117Z,1017.43
2019-06-01T11:26:48.078Z,1017.47
2019-06-01T11:27:48.074Z,1017.44
2019-06-01T11:28:48.066Z,1017.39
2019-06-01T11:29:51.456Z,1017.37
2019-06-01T11:30:48.085Z,1017.42
2019-06-01T11:31:48.192Z,1017.41
2019-06-01T11:32:48.074Z,1017.38
2019-06-01T11:33:48.053Z,1017.37
2019-06-01T11:34:48.045Z,1017.36
2019-06-01T11:35:48.037Z,1017.37
2019-06-01T11:37:04.310Z,1017.37
2019-06-01T11:37:48.029Z,1017.30
2019-06-01T11:38:48.042Z,1017.32
2019-06-01T11:39:48.024Z,1017.35
2019-06-01T11:40:48.029Z,1017.35
2019-06-01T11:41:48.044Z,1017.32
2019-06-01T11:42:48.016Z,1017.24
2019-06-01T11:43:48.011Z,1017.28
2019-06-01T11:44:48.006Z,1017.27
2019-06-01T11:45:48.003Z,1017.30
2019-06-01T11:46:48.012Z,1017.22
2019-06-01T11:47:47.992Z,1017.24
2019-06-01T11:48:47.990Z,1017.20
2019-06-01T11:49:47.999Z,1017.17
2019-06-01T11:50:48.031Z,1017.15
2019-06-01T11:51:47.979Z,1017.11
2019-06-01T11:52:47.978Z,1017.16
2019-06-01T11:53:47.971Z,1017.13
2019-06-01T11:54:47.969Z,1017.16
2019-06-01T11:55:47.971Z,1017.17
2019-06-01T11:56:47.982Z,1017.12
2019-06-01T11:57:47.977Z,1017.14
2019-06-01T11:58:47.955Z,1017.10
2019-06-01T11:59:47.970Z,1017.03
2019-06-01T12:00:47.957Z,1017.13
2019-06-01T12:01:47.939Z,1017.12
2019-06-01T12:02:47.938Z,1017.13
2019-06-01T12:03:47.955Z,1017.06
2019-06-01T12:04:48.099Z,1017.06
2019-06-01T12:05:48.047Z,1016.99
2019-06-01T12:06:47.923Z,1016.97
2019-06-01T12:07:47.919Z,1017.05